Terminal Aerodrome Forecast
Issued by NWS

Current Version | Previous Version | Text Only | Print | Product List | Glossary On
Versions: 1 2 3 4 5 6 7 8 9 10 11 12 13 14 15
000
FTUS43 KAPX 310539
TAFAPN
TAF
KAPN 310539Z 3106/0106 25004KT P6SM -SHRA OVC025
     FM310900 33008KT 5SM -SHRASN BR OVC015
     FM311300 36020G32KT 3SM -SHSN OVC025
     FM312100 36017G25KT P6SM -SHSN OVC035
     FM010300 36012G20KT P6SM BKN035=

USA.gov is the U.S. government's official web portal to all federal, state and local government web resources and services.